createdAt,value
2023-05-25T00:03:20.454Z,35.38
2023-05-25T00:08:29.362Z,35.63
2023-05-25T00:13:32.437Z,36.08
2023-05-25T00:18:37.962Z,35.63
2023-05-25T00:23:42.578Z,35.65
2023-05-25T00:28:45.526Z,35.88
2023-05-25T00:33:50.438Z,35.15
2023-05-25T00:38:54.813Z,35.47
2023-05-25T00:43:57.848Z,35.67
2023-05-25T00:49:00.898Z,36.88
2023-05-25T00:54:05.365Z,35.38
2023-05-25T00:59:11.014Z,35.38
2023-05-25T01:04:17.110Z,35.75
2023-05-25T01:09:24.239Z,35.78
2023-05-25T01:14:28.481Z,35.13
2023-05-25T01:19:33.828Z,35.28
2023-05-25T01:24:45.351Z,35.25
2023-05-25T01:29:50.548Z,35.20
2023-05-25T01:34:55.519Z,35.72
2023-05-25T01:39:59.904Z,35.55
2023-05-25T01:45:03.312Z,34.90
2023-05-25T01:50:16.779Z,35.55
2023-05-25T01:55:22.575Z,35.35
2023-05-25T02:00:26.889Z,36.50
2023-05-25T02:05:29.919Z,35.15
2023-05-25T02:10:34.417Z,35.60
2023-05-25T02:15:37.484Z,36.20
2023-05-25T02:20:41.226Z,35.63
2023-05-25T02:25:46.439Z,35.97
2023-05-25T02:30:49.648Z,35.90
2023-05-25T02:35:52.662Z,35.80
2023-05-25T02:40:57.179Z,35.72
2023-05-25T02:46:00.991Z,35.97
2023-05-25T02:51:04.828Z,35.58
2023-05-25T02:56:10.371Z,36.20
2023-05-25T03:01:18.697Z,35.40
2023-05-25T03:06:27.201Z,36.42
2023-05-25T03:11:35.378Z,34.83
2023-05-25T03:16:40.540Z,35.45
2023-05-25T03:21:43.766Z,35.50
2023-05-25T03:26:48.273Z,35.25
2023-05-25T03:31:52.496Z,36.20
2023-05-25T03:36:57.916Z,35.83
2023-05-25T03:42:03.799Z,36.20
2023-05-25T03:47:07.376Z,35.22
2023-05-25T03:52:10.376Z,34.97
2023-05-25T03:57:14.716Z,35.65
2023-05-25T04:02:18.201Z,35.40
2023-05-25T04:07:21.350Z,35.38
2023-05-25T04:12:25.670Z,35.05
2023-05-25T04:17:28.963Z,35.55
2023-05-25T04:22:33.426Z,35.92
2023-05-25T04:27:42.273Z,35.88
2023-05-25T04:32:47.658Z,36.22
2023-05-25T04:38:02.832Z,35.08
2023-05-25T04:43:07.618Z,35.05
2023-05-25T04:48:13.105Z,36.42
2023-05-25T04:53:16.267Z,35.47
2023-05-25T04:58:20.684Z,35.53
2023-05-25T05:03:24.219Z,35.83
2023-05-25T05:08:27.587Z,35.35
2023-05-25T05:13:31.951Z,35.42
2023-05-25T05:18:41.337Z,36.17
2023-05-25T05:23:44.530Z,35.17
2023-05-25T05:28:52.480Z,36.78
2023-05-25T05:33:56.103Z,35.50
2023-05-25T05:38:59.194Z,35.90
2023-05-25T05:44:03.486Z,35.72
2023-05-25T05:49:06.488Z,35.38
2023-05-25T05:54:09.540Z,36.13
2023-05-25T05:59:14.110Z,35.50
2023-05-25T06:04:17.319Z,35.67
2023-05-25T06:09:20.786Z,36.33
2023-05-25T06:14:27.496Z,35.65
2023-05-25T06:19:32.682Z,36.63
2023-05-25T06:24:36.013Z,35.38
2023-05-25T06:29:40.326Z,35.70
2023-05-25T06:34:43.799Z,36.55
2023-05-25T06:39:46.976Z,36.75
2023-05-25T06:44:51.458Z,36.20
2023-05-25T06:49:54.399Z,36.40
2023-05-25T06:54:57.555Z,35.92
2023-05-25T07:00:01.873Z,35.90
2023-05-25T07:05:05.839Z,36.47
2023-05-25T07:10:10.498Z,36.63
2023-05-25T07:15:16.091Z,36.35
2023-05-25T07:20:19.380Z,36.83
2023-05-25T07:25:22.302Z,37.30
2023-05-25T07:30:26.665Z,37.33
2023-05-25T07:35:29.669Z,37.03
2023-05-25T07:40:32.646Z,37.13
2023-05-25T07:45:36.932Z,37.33
2023-05-25T07:50:39.969Z,37.10
2023-05-25T07:55:43.180Z,37.53
2023-05-25T08:00:49.730Z,37.35
2023-05-25T08:05:53.027Z,37.15
2023-05-25T08:10:55.945Z,37.25
2023-05-25T08:16:00.247Z,36.92
2023-05-25T08:21:03.672Z,36.85
2023-05-25T08:26:20.347Z,37.30
2023-05-25T08:31:32.505Z,37.50
2023-05-25T08:36:36.259Z,37.35
2023-05-25T08:41:43.898Z,38.00
2023-05-25T08:46:49.999Z,38.05
2023-05-25T08:51:54.278Z,38.30
2023-05-25T08:57:03.368Z,37.97
2023-05-25T09:02:19.683Z,37.65
2023-05-25T09:07:22.803Z,38.08
2023-05-25T09:12:25.811Z,38.25
2023-05-25T09:17:30.545Z,38.10
2023-05-25T09:22:33.577Z,37.95
2023-05-25T09:27:38.209Z,38.00
2023-05-25T09:32:42.695Z,38.47
2023-05-25T09:37:48.161Z,39.08
2023-05-25T09:42:51.598Z,37.78
2023-05-25T09:47:57.187Z,38.88
2023-05-25T09:53:02.097Z,38.35
2023-05-25T09:58:05.708Z,38.13
2023-05-25T10:03:15.047Z,37.60
2023-05-25T10:08:21.758Z,38.22
2023-05-25T10:13:28.375Z,39.33
2023-05-25T10:18:37.158Z,38.72
2023-05-25T10:23:46.121Z,39.45
2023-05-25T10:28:52.587Z,38.75
2023-05-25T10:33:57.258Z,38.55
2023-05-25T10:39:02.036Z,39.22
2023-05-25T10:44:05.342Z,39.22
2023-05-25T10:49:11.299Z,38.88
2023-05-25T10:54:15.837Z,39.10
2023-05-25T10:59:27.399Z,40.08
2023-05-25T11:04:36.975Z,39.85
2023-05-25T11:09:44.527Z,40.17
2023-05-25T11:15:11.832Z,39.92
2023-05-25T11:20:30.742Z,40.10
2023-05-25T11:25:38.614Z,40.03
2023-05-25T11:30:43.093Z,39.88
2023-05-25T11:35:48.995Z,40.40
2023-05-25T11:40:52.296Z,40.38
2023-05-25T11:45:57.455Z,39.95
2023-05-25T11:51:08.237Z,39.67
2023-05-25T11:56:12.574Z,40.58
2023-05-25T12:01:19.023Z,40.08
2023-05-25T12:06:28.276Z,39.85
2023-05-25T12:11:33.472Z,39.55
2023-05-25T12:16:39.049Z,40.08
2023-05-25T12:21:43.855Z,40.08
2023-05-25T12:26:50.600Z,40.55
2023-05-25T12:31:53.642Z,40.65
2023-05-25T12:36:58.304Z,40.53
2023-05-25T12:42:03.193Z,39.97
2023-05-25T12:47:16.883Z,41.05
2023-05-25T12:52:38.258Z,40.60
2023-05-25T12:57:41.273Z,40.55
2023-05-25T13:02:46.639Z,42.00
2023-05-25T13:07:53.118Z,41.58
2023-05-25T13:12:58.541Z,41.05
2023-05-25T13:18:02.843Z,40.72
2023-05-25T13:23:07.221Z,40.72
2023-05-25T13:28:10.267Z,40.67
2023-05-25T13:33:13.279Z,40.72
2023-05-25T13:38:17.723Z,41.40
2023-05-25T13:43:20.761Z,40.65
2023-05-25T13:48:24.218Z,40.38
2023-05-25T13:53:28.693Z,40.75
2023-05-25T13:58:31.693Z,41.38
2023-05-25T14:03:34.792Z,41.45
2023-05-25T14:08:39.379Z,41.42
2023-05-25T14:13:42.532Z,40.72
2023-05-25T14:18:45.547Z,41.15
2023-05-25T14:23:50.082Z,41.70
2023-05-25T14:28:53.109Z,42.05
2023-05-25T14:33:56.151Z,40.70
2023-05-25T14:39:00.549Z,41.58
2023-05-25T14:44:03.540Z,41.50
2023-05-25T14:49:17.123Z,42.90
2023-05-25T14:54:42.139Z,42.72
2023-05-25T14:59:48.967Z,41.45
2023-05-25T15:04:54.590Z,43.30
2023-05-25T15:09:59.215Z,41.58
2023-05-25T15:15:02.397Z,41.70
2023-05-25T15:20:06.220Z,41.63
2023-05-25T15:25:14.989Z,42.08
2023-05-25T15:30:22.016Z,41.38
2023-05-25T15:35:30.915Z,41.55
2023-05-25T15:40:37.128Z,41.55
2023-05-25T15:45:40.248Z,41.63
2023-05-25T15:50:43.178Z,41.33
2023-05-25T15:55:48.507Z,42.08
2023-05-25T16:00:51.664Z,41.88
2023-05-25T16:05:54.775Z,42.05
2023-05-25T16:10:59.193Z,41.08
2023-05-25T16:16:04.868Z,41.78
2023-05-25T16:21:08.121Z,41.45
2023-05-25T16:26:12.675Z,41.70
2023-05-25T16:31:16.787Z,41.78
2023-05-25T16:36:19.846Z,41.90
2023-05-25T16:41:24.238Z,42.05
2023-05-25T16:46:34.919Z,41.67
2023-05-25T16:51:40.425Z,42.38
2023-05-25T16:56:52.274Z,41.88
2023-05-25T17:01:55.875Z,42.15
2023-05-25T17:06:58.873Z,41.70
2023-05-25T17:12:03.774Z,41.08
2023-05-25T17:17:06.978Z,42.15
2023-05-25T17:22:10.071Z,41.80
2023-05-25T17:27:14.496Z,41.70
2023-05-25T17:32:17.614Z,41.42
2023-05-25T17:37:21.284Z,42.13
2023-05-25T17:42:28.578Z,41.42
2023-05-25T17:47:31.663Z,42.13
2023-05-25T17:52:36.819Z,42.30
2023-05-25T17:57:41.236Z,41.42
2023-05-25T18:02:52.202Z,41.53
2023-05-25T18:07:55.475Z,41.97
2023-05-25T18:13:07.529Z,42.45
2023-05-25T18:18:10.949Z,42.17
2023-05-25T18:23:23.785Z,41.22
2023-05-25T18:28:46.925Z,41.60
2023-05-25T18:33:50.384Z,41.10
2023-05-25T18:38:59.756Z,42.15
2023-05-25T18:44:05.874Z,41.17
2023-05-25T18:49:16.598Z,41.22
2023-05-25T18:54:19.969Z,41.15
2023-05-25T18:59:34.287Z,41.53
2023-05-25T19:04:37.740Z,40.95
2023-05-25T19:09:42.289Z,40.75
2023-05-25T19:14:46.593Z,41.30
2023-05-25T19:19:58.285Z,41.30
2023-05-25T19:25:01.533Z,40.92
2023-05-25T19:30:11.928Z,40.63
2023-05-25T19:35:15.074Z,40.83
2023-05-25T19:40:18.259Z,40.80
2023-05-25T19:45:25.808Z,41.20
2023-05-25T19:50:30.771Z,40.95
2023-05-25T19:55:33.845Z,41.13
2023-05-25T20:00:38.118Z,41.88
2023-05-25T20:05:41.054Z,41.65
2023-05-25T20:10:44.989Z,40.72
2023-05-25T20:15:49.400Z,41.08
2023-05-25T20:20:52.920Z,41.42
2023-05-25T20:25:55.850Z,40.55
2023-05-25T20:31:00.158Z,40.95
2023-05-25T20:36:03.174Z,41.80
2023-05-25T20:41:06.299Z,40.67
2023-05-25T20:46:11.228Z,40.35
2023-05-25T20:51:14.313Z,40.10
2023-05-25T20:56:17.910Z,40.47
2023-05-25T21:01:22.227Z,40.38
2023-05-25T21:06:25.163Z,40.08
2023-05-25T21:11:28.763Z,40.42
2023-05-25T21:16:33.150Z,40.88
2023-05-25T21:21:36.493Z,40.70
2023-05-25T21:26:39.482Z,40.08
2023-05-25T21:31:44.069Z,40.63
2023-05-25T21:36:47.077Z,40.20
2023-05-25T21:41:50.006Z,39.95
2023-05-25T21:46:54.367Z,40.05
2023-05-25T21:51:57.409Z,40.75
2023-05-25T21:57:01.751Z,39.53
2023-05-25T22:02:06.433Z,39.40
2023-05-25T22:07:09.442Z,39.50
2023-05-25T22:12:13.110Z,39.42
2023-05-25T22:17:18.923Z,39.92
2023-05-25T22:22:22.008Z,39.97
2023-05-25T22:27:24.928Z,39.45
2023-05-25T22:32:29.286Z,39.67
2023-05-25T22:37:32.320Z,39.80
2023-05-25T22:42:35.389Z,40.70
2023-05-25T22:47:39.812Z,40.42
2023-05-25T22:52:42.807Z,40.75
2023-05-25T22:57:45.782Z,41.75
2023-05-25T23:02:50.170Z,39.63
2023-05-25T23:07:53.155Z,41.05
2023-05-25T23:12:56.304Z,39.95
2023-05-25T23:18:00.747Z,40.25
2023-05-25T23:23:03.721Z,40.22
2023-05-25T23:28:06.712Z,39.67
2023-05-25T23:33:12.032Z,39.90
2023-05-25T23:38:15.690Z,40.47
2023-05-25T23:43:18.836Z,39.50
2023-05-25T23:48:23.091Z,39.75
2023-05-25T23:53:26.049Z,39.28
2023-05-25T23:58:29.197Z,40.53
